NCAR-RAP Real-Time Weather Data

Output produced by METARs form (08 May 2021  17:17 UTC)
found at http://weather.rap.ucar.edu/surface/
 
KAUS 081653Z 18013G21KT 10SM BKN026 BKN032 OVC050 26/21 A2994 RMK AO2 PK WND 17028/1622 SLP129 BINOVC T02610211
KAUS 081553Z 19016G21KT 10SM BKN020 BKN027 BKN050 26/21 A2995 RMK AO2 SLP133 T02560211
KAUS 081519Z 18013G19KT 10SM BKN016 OVC022 24/21 A2996 RMK AO2 T02390211
KAUS 081453Z 17013G20KT 9SM BKN013 OVC018 24/21 A2996 RMK AO2 SLP137 T02390211 56005
KAUS 081410Z 17011KT 8SM OVC010 22/21 A2996 RMK AO2 T02220211
KAUS 081353Z 16011KT 7SM BKN008 OVC011 22/21 A2996 RMK AO2 SLP138 T02170206
KAUS 081253Z 17006KT 8SM OVC008 20/20 A2997 RMK AO2 SLP140 T02000200
KAUS 081153Z 18006KT 10SM OVC008 19/19 A2997 RMK AO2 SLP142 T01940194 10200 20178 55002
KAUS 081130Z 18009KT 10SM BKN008 OVC031 19/19 A2997 RMK AO2 T01940194
KAUS 081053Z 17008KT 10SM OVC026 19/19 A2994 RMK AO2 SLP130 T01940189
KAUS 080953Z 17009KT 10SM BKN024 19/19 A2995 RMK AO2 SLP132 T01890189
KAUS 080924Z 18007KT 10SM BKN023 18/18 A2997 RMK AO2 T01830183
KAUS 080853Z 18006KT 10SM FEW024 18/18 A2998 RMK AO2 SLP144 T01780178 58017
KAUS 080753Z 19008KT 10SM SCT024 19/18 A3000 RMK AO2 SLP152 T01890183
KAUS 080653Z 19007KT 10SM BKN023 19/18 A3002 RMK AO2 SLP158 T01890178
KAUS 080553Z 19008KT 10SM OVC020 20/17 A3003 RMK AO2 SLP161 T02000167 10272 20183 402890117 50009
KAUS 080453Z 18008KT 10SM BKN021 18/16 A3004 RMK AO2 SLP164 T01830156
KAUS 080353Z 17009KT 10SM FEW250 20/15 A3003 RMK AO2 SLP163 T02000150
KAUS 080253Z 17010KT 10SM FEW250 21/14 A3000 RMK AO2 SLP152 T02110144 53003
KAUS 080153Z 16010KT 10SM CLR 23/14 A2997 RMK AO2 SLP143 T02330139
KAUS 080053Z 15009KT 10SM BKN250 25/16 A2998 RMK AO2 SLP144 T02500156
KAUS 072353Z 16011G18KT 10SM BKN250 27/14 A3000 RMK AO2 SLP151 T02670144 10289 20267 56028
KAUS 072253Z 15011KT 10SM BKN250 28/14 A3002 RMK AO2 SLP157 T02780144
KAUS 072153Z 12010KT 10SM BKN250 29/15 A3004 RMK AO2 SLP166 T02890150
KAUS 072053Z 13010KT 10SM BKN250 28/14 A3008 RMK AO2 SLP179 T02780144 56030
KAUS 071953Z 18009KT 10SM FEW050 BKN250 27/14 A3011 RMK AO2 SLP191 T02670144
KAUS 071853Z 16006G17KT 10SM FEW050 BKN250 27/14 A3013 RMK AO2 SLP197 T02720144
KAUS 071753Z VRB05KT 10SM FEW046 BKN250 27/15 A3017 RMK AO2 SLP210 T02670150 10272 20122 58009
KAUS 071653Z 15009KT 10SM FEW044 BKN250 26/16 A3020 RMK AO2 SLP218 T02560156
KAUS 071553Z 19007KT 10SM FEW039 BKN250 25/16 A3020 RMK AO2 SLP221 T02500156
KAUS 071453Z 12003KT 10SM FEW250 23/17 A3020 RMK AO2 SLP220 T02280172 51011
KAUS 071353Z 00000KT 10SM FEW250 20/17 A3019 RMK AO2 SLP218 T02000167
KAUS 071253Z 00000KT 10SM FEW200 SCT250 16/16 A3019 RMK AO2 SLP215 T01610156
KAUS 071153Z 00000KT 10SM FEW200 FEW250 12/12 A3017 RMK AO2 SLP210 T01220122 10156 20117 53006
KAUS 071053Z 00000KT 10SM FEW250 13/13 A3015 RMK AO2 SLP205 T01280128
KAUS 070953Z 00000KT 10SM CLR 13/13 A3015 RMK AO2 SLP204 T01330133
KAUS 070853Z 00000KT 10SM CLR 13/13 A3015 RMK AO2 SLP203 T01330133 55003
KAUS 070756Z 00000KT 10SM CLR 13/13 A3014 RMK AO2 T01330133
KAUS 070753Z 00000KT 3/4SM R18L/P6000FT CLR 13/13 A3014 RMK AO2 SLP199 T01330133
KAUS 070750Z 00000KT 1 1/2SM BR CLR 13/13 A3014 RMK AO2
KAUS 070653Z 00000KT 10SM CLR 14/14 A3015 RMK AO2 SLP205 T01440144
KAUS 070553Z 00000KT 10SM CLR 16/15 A3016 RMK AO2 SLP206 T01560150 10272 20150 402890100 51005
KAUS 070453Z 00000KT 10SM CLR 16/15 A3016 RMK AO2 SLP207 T01560150
KAUS 070353Z 00000KT 10SM CLR 17/15 A3016 RMK AO2 SLP206 T01670150
KAUS 070253Z 11003KT 10SM CLR 18/15 A3014 RMK AO2 SLP203 T01780150 53010
KAUS 070153Z 06004KT 10SM CLR 22/14 A3013 RMK AO2 SLP196 T02220144
KAUS 070053Z 03008KT 10SM CLR 25/13 A3011 RMK AO2 SLP189 T02500133
KAUS 062353Z 04009KT 10SM CLR 27/12 A3011 RMK AO2 SLP191 T02720117 10289 20261 56007
KAUS 062253Z 06009KT 10SM CLR 28/12 A3011 RMK AO2 SLP190 T02830117
KAUS 062153Z 04012G17KT 10SM CLR 29/14 A3012 RMK AO2 SLP193 T02890139
KAUS 062053Z 03010G16KT 10SM CLR 29/11 A3013 RMK AO2 SLP197 T02890111 56021
KAUS 061953Z 02007KT 10SM CLR 29/14 A3015 RMK AO2 SLP205 T02890144
KAUS 061853Z 08007KT 10SM CLR 27/14 A3017 RMK AO2 SLP210 T02720144
KAUS 061753Z 05008G14KT 10SM R18L/3500VP6000FT CLR 27/16 A3020 RMK AO2 SLP220 T02670161 10267 20122 58009